sensor_id;sensor_type;location;lat;lon;timestamp;P1;durP1;ratioP1;P2;durP2;ratioP2
20480;SDS011;10399;50.754;3.366;2022-12-24T00:01:05;47.45;;;6.53;;
20480;SDS011;10399;50.754;3.366;2022-12-24T00:03:33;49.90;;;7.22;;
20480;SDS011;10399;50.754;3.366;2022-12-24T00:06:05;45.90;;;6.55;;
20480;SDS011;10399;50.754;3.366;2022-12-24T00:08:33;47.97;;;5.95;;
20480;SDS011;10399;50.754;3.366;2022-12-24T00:11:01;51.33;;;7.68;;
20480;SDS011;10399;50.754;3.366;2022-12-24T00:13:28;53.78;;;6.68;;
20480;SDS011;10399;50.754;3.366;2022-12-24T00:15:55;38.25;;;5.85;;
20480;SDS011;10399;50.754;3.366;2022-12-24T00:18:22;47.65;;;7.00;;
20480;SDS011;10399;50.754;3.366;2022-12-24T00:20:49;49.55;;;6.80;;
20480;SDS011;10399;50.754;3.366;2022-12-24T00:23:16;43.35;;;6.07;;
20480;SDS011;10399;50.754;3.366;2022-12-24T00:25:44;39.97;;;6.20;;
20480;SDS011;10399;50.754;3.366;2022-12-24T00:28:11;51.05;;;6.72;;
20480;SDS011;10399;50.754;3.366;2022-12-24T00:30:40;45.10;;;6.75;;
20480;SDS011;10399;50.754;3.366;2022-12-24T00:33:08;48.63;;;6.50;;
20480;SDS011;10399;50.754;3.366;2022-12-24T00:35:36;50.75;;;6.32;;
20480;SDS011;10399;50.754;3.366;2022-12-24T00:38:03;53.45;;;5.50;;
20480;SDS011;10399;50.754;3.366;2022-12-24T00:40:31;56.72;;;6.25;;
20480;SDS011;10399;50.754;3.366;2022-12-24T00:42:59;44.35;;;6.15;;
20480;SDS011;10399;50.754;3.366;2022-12-24T00:45:26;45.40;;;5.65;;
20480;SDS011;10399;50.754;3.366;2022-12-24T00:47:53;39.42;;;5.55;;
20480;SDS011;10399;50.754;3.366;2022-12-24T00:50:21;42.67;;;6.45;;
20480;SDS011;10399;50.754;3.366;2022-12-24T00:52:48;49.40;;;6.72;;
20480;SDS011;10399;50.754;3.366;2022-12-24T00:55:15;45.83;;;6.25;;
20480;SDS011;10399;50.754;3.366;2022-12-24T00:57:42;47.53;;;6.60;;
20480;SDS011;10399;50.754;3.366;2022-12-24T01:00:09;43.70;;;6.45;;
20480;SDS011;10399;50.754;3.366;2022-12-24T01:02:36;39.00;;;5.75;;
20480;SDS011;10399;50.754;3.366;2022-12-24T01:05:04;45.78;;;6.28;;
20480;SDS011;10399;50.754;3.366;2022-12-24T01:07:38;42.55;;;5.85;;
20480;SDS011;10399;50.754;3.366;2022-12-24T01:10:10;36.42;;;5.63;;
20480;SDS011;10399;50.754;3.366;2022-12-24T01:12:43;42.47;;;6.82;;
20480;SDS011;10399;50.754;3.366;2022-12-24T01:15:12;43.05;;;5.63;;
20480;SDS011;10399;50.754;3.366;2022-12-24T01:17:40;37.47;;;5.75;;
20480;SDS011;10399;50.754;3.366;2022-12-24T01:20:07;30.13;;;4.75;;
20480;SDS011;10399;50.754;3.366;2022-12-24T01:22:38;34.95;;;5.50;;
20480;SDS011;10399;50.754;3.366;2022-12-24T01:25:05;45.95;;;5.45;;
20480;SDS011;10399;50.754;3.366;2022-12-24T01:27:32;43.70;;;5.07;;
20480;SDS011;10399;50.754;3.366;2022-12-24T01:30:00;33.33;;;4.20;;
20480;SDS011;10399;50.754;3.366;2022-12-24T01:32:27;33.78;;;5.25;;
20480;SDS011;10399;50.754;3.366;2022-12-24T01:34:54;33.60;;;4.97;;
20480;SDS011;10399;50.754;3.366;2022-12-24T01:37:21;35.30;;;5.13;;
20480;SDS011;10399;50.754;3.366;2022-12-24T01:39:48;35.47;;;5.68;;
20480;SDS011;10399;50.754;3.366;2022-12-24T01:42:17;40.20;;;5.88;;
20480;SDS011;10399;50.754;3.366;2022-12-24T01:48:12;34.65;;;4.75;;
20480;SDS011;10399;50.754;3.366;2022-12-24T01:50:43;31.67;;;4.55;;
20480;SDS011;10399;50.754;3.366;2022-12-24T01:53:11;34.30;;;5.32;;
20480;SDS011;10399;50.754;3.366;2022-12-24T01:55:42;37.83;;;6.25;;
20480;SDS011;10399;50.754;3.366;2022-12-24T01:58:11;39.22;;;5.55;;
20480;SDS011;10399;50.754;3.366;2022-12-24T02:00:40;41.53;;;5.65;;
20480;SDS011;10399;50.754;3.366;2022-12-24T02:03:07;36.75;;;5.25;;
20480;SDS011;10399;50.754;3.366;2022-12-24T02:05:49;41.95;;;5.22;;
20480;SDS011;10399;50.754;3.366;2022-12-24T02:08:17;37.55;;;4.45;;
20480;SDS011;10399;50.754;3.366;2022-12-24T02:10:45;36.70;;;5.05;;
20480;SDS011;10399;50.754;3.366;2022-12-24T02:13:13;38.60;;;5.80;;
20480;SDS011;10399;50.754;3.366;2022-12-24T02:15:53;37.97;;;4.60;;
20480;SDS011;10399;50.754;3.366;2022-12-24T02:21:41;40.38;;;5.22;;
20480;SDS011;10399;50.754;3.366;2022-12-24T02:27:20;39.70;;;5.43;;
20480;SDS011;10399;50.754;3.366;2022-12-24T02:30:10;46.10;;;5.57;;
20480;SDS011;10399;50.754;3.366;2022-12-24T02:40:58;44.80;;;5.35;;
20480;SDS011;10399;50.754;3.366;2022-12-24T02:43:38;52.90;;;5.80;;
20480;SDS011;10399;50.754;3.366;2022-12-24T02:46:11;48.33;;;6.05;;
20480;SDS011;10399;50.754;3.366;2022-12-24T02:48:45;61.85;;;5.78;;
20480;SDS011;10399;50.754;3.366;2022-12-24T02:51:14;37.38;;;5.40;;
20480;SDS011;10399;50.754;3.366;2022-12-24T02:53:41;55.33;;;7.07;;
20480;SDS011;10399;50.754;3.366;2022-12-24T03:09:25;48.33;;;5.75;;
20480;SDS011;10399;50.754;3.366;2022-12-24T03:12:07;54.70;;;6.13;;
20480;SDS011;10399;50.754;3.366;2022-12-24T03:14:39;46.92;;;5.55;;
20480;SDS011;10399;50.754;3.366;2022-12-24T03:17:07;54.05;;;6.05;;
20480;SDS011;10399;50.754;3.366;2022-12-24T03:19:35;56.22;;;6.38;;
20480;SDS011;10399;50.754;3.366;2022-12-24T03:22:03;50.75;;;6.78;;
20480;SDS011;10399;50.754;3.366;2022-12-24T03:24:35;54.13;;;6.32;;
20480;SDS011;10399;50.754;3.366;2022-12-24T03:27:03;66.55;;;6.85;;
20480;SDS011;10399;50.754;3.366;2022-12-24T03:29:32;57.25;;;5.47;;
20480;SDS011;10399;50.754;3.366;2022-12-24T03:31:59;68.03;;;6.80;;
20480;SDS011;10399;50.754;3.366;2022-12-24T03:34:29;55.13;;;6.40;;
20480;SDS011;10399;50.754;3.366;2022-12-24T03:36:56;53.50;;;6.50;;
20480;SDS011;10399;50.754;3.366;2022-12-24T03:39:23;46.10;;;6.72;;
20480;SDS011;10399;50.754;3.366;2022-12-24T03:41:50;52.45;;;6.53;;
20480;SDS011;10399;50.754;3.366;2022-12-24T03:44:17;45.95;;;5.82;;
20480;SDS011;10399;50.754;3.366;2022-12-24T03:46:44;40.78;;;5.38;;
20480;SDS011;10399;50.754;3.366;2022-12-24T03:49:11;39.55;;;5.18;;
20480;SDS011;10399;50.754;3.366;2022-12-24T03:51:38;34.40;;;5.00;;
20480;SDS011;10399;50.754;3.366;2022-12-24T03:54:05;33.88;;;5.18;;
20480;SDS011;10399;50.754;3.366;2022-12-24T03:56:31;41.85;;;6.18;;
20480;SDS011;10399;50.754;3.366;2022-12-24T03:59:01;37.95;;;5.53;;
20480;SDS011;10399;50.754;3.366;2022-12-24T04:01:28;45.15;;;6.13;;
20480;SDS011;10399;50.754;3.366;2022-12-24T04:03:55;39.63;;;6.20;;
20480;SDS011;10399;50.754;3.366;2022-12-24T04:06:22;44.10;;;5.57;;
20480;SDS011;10399;50.754;3.366;2022-12-24T04:08:49;37.03;;;5.13;;
20480;SDS011;10399;50.754;3.366;2022-12-24T04:11:16;32.92;;;5.47;;
20480;SDS011;10399;50.754;3.366;2022-12-24T04:13:44;33.80;;;5.22;;
20480;SDS011;10399;50.754;3.366;2022-12-24T04:16:12;47.40;;;5.40;;
20480;SDS011;10399;50.754;3.366;2022-12-24T04:18:40;40.97;;;6.35;;
20480;SDS011;10399;50.754;3.366;2022-12-24T04:21:08;47.65;;;6.07;;
20480;SDS011;10399;50.754;3.366;2022-12-24T04:23:36;40.90;;;5.28;;
20480;SDS011;10399;50.754;3.366;2022-12-24T04:26:05;44.72;;;5.40;;
20480;SDS011;10399;50.754;3.366;2022-12-24T04:28:33;40.25;;;5.55;;
20480;SDS011;10399;50.754;3.366;2022-12-24T04:31:02;35.60;;;5.55;;
20480;SDS011;10399;50.754;3.366;2022-12-24T04:33:32;35.58;;;5.57;;
20480;SDS011;10399;50.754;3.366;2022-12-24T04:36:00;54.05;;;6.35;;
20480;SDS011;10399;50.754;3.366;2022-12-24T04:38:28;42.13;;;5.72;;
20480;SDS011;10399;50.754;3.366;2022-12-24T04:41:06;36.78;;;5.05;;
20480;SDS011;10399;50.754;3.366;2022-12-24T04:43:36;39.53;;;6.90;;
20480;SDS011;10399;50.754;3.366;2022-12-24T04:46:07;43.58;;;4.90;;
20480;SDS011;10399;50.754;3.366;2022-12-24T04:48:36;31.55;;;4.70;;
20480;SDS011;10399;50.754;3.366;2022-12-24T04:51:04;43.25;;;5.50;;
20480;SDS011;10399;50.754;3.366;2022-12-24T04:53:32;43.10;;;6.03;;
20480;SDS011;10399;50.754;3.366;2022-12-24T04:56:00;38.67;;;5.38;;
20480;SDS011;10399;50.754;3.366;2022-12-24T04:58:28;46.67;;;5.60;;
20480;SDS011;10399;50.754;3.366;2022-12-24T05:00:55;41.90;;;5.50;;
20480;SDS011;10399;50.754;3.366;2022-12-24T05:03:22;44.38;;;5.88;;
20480;SDS011;10399;50.754;3.366;2022-12-24T05:05:49;35.60;;;5.90;;
20480;SDS011;10399;50.754;3.366;2022-12-24T05:08:23;39.72;;;5.70;;
20480;SDS011;10399;50.754;3.366;2022-12-24T05:10:56;44.00;;;5.97;;
20480;SDS011;10399;50.754;3.366;2022-12-24T05:13:24;38.35;;;5.18;;
20480;SDS011;10399;50.754;3.366;2022-12-24T05:16:03;53.53;;;6.10;;
20480;SDS011;10399;50.754;3.366;2022-12-24T05:18:30;30.83;;;5.15;;
20480;SDS011;10399;50.754;3.366;2022-12-24T05:20:59;44.72;;;5.47;;
20480;SDS011;10399;50.754;3.366;2022-12-24T05:23:26;40.00;;;5.70;;
20480;SDS011;10399;50.754;3.366;2022-12-24T05:26:15;35.22;;;5.40;;
20480;SDS011;10399;50.754;3.366;2022-12-24T05:28:52;46.58;;;5.57;;
20480;SDS011;10399;50.754;3.366;2022-12-24T05:31:21;31.60;;;5.60;;
20480;SDS011;10399;50.754;3.366;2022-12-24T05:33:50;53.83;;;9.32;;
20480;SDS011;10399;50.754;3.366;2022-12-24T05:36:16;35.55;;;5.82;;
20480;SDS011;10399;50.754;3.366;2022-12-24T05:38:44;40.92;;;5.82;;
20480;SDS011;10399;50.754;3.366;2022-12-24T05:41:11;37.33;;;5.43;;
20480;SDS011;10399;50.754;3.366;2022-12-24T05:43:38;44.53;;;6.85;;
20480;SDS011;10399;50.754;3.366;2022-12-24T05:46:06;39.83;;;5.78;;
20480;SDS011;10399;50.754;3.366;2022-12-24T05:48:35;42.47;;;6.20;;
20480;SDS011;10399;50.754;3.366;2022-12-24T05:51:03;33.22;;;5.88;;
20480;SDS011;10399;50.754;3.366;2022-12-24T05:53:31;44.28;;;6.00;;
20480;SDS011;10399;50.754;3.366;2022-12-24T05:56:05;48.78;;;5.15;;
20480;SDS011;10399;50.754;3.366;2022-12-24T05:58:38;43.92;;;5.60;;
20480;SDS011;10399;50.754;3.366;2022-12-24T06:01:06;36.42;;;5.47;;
20480;SDS011;10399;50.754;3.366;2022-12-24T06:03:34;42.15;;;6.50;;
20480;SDS011;10399;50.754;3.366;2022-12-24T06:06:03;42.70;;;6.15;;
20480;SDS011;10399;50.754;3.366;2022-12-24T06:08:33;33.97;;;5.35;;
20480;SDS011;10399;50.754;3.366;2022-12-24T06:11:02;31.38;;;5.10;;
20480;SDS011;10399;50.754;3.366;2022-12-24T06:13:30;34.92;;;6.40;;
20480;SDS011;10399;50.754;3.366;2022-12-24T06:15:58;38.50;;;6.10;;
20480;SDS011;10399;50.754;3.366;2022-12-24T06:18:30;41.38;;;5.80;;
20480;SDS011;10399;50.754;3.366;2022-12-24T06:20:58;46.50;;;6.10;;
20480;SDS011;10399;50.754;3.366;2022-12-24T06:23:27;55.03;;;6.55;;
20480;SDS011;10399;50.754;3.366;2022-12-24T06:25:56;46.17;;;5.85;;
20480;SDS011;10399;50.754;3.366;2022-12-24T06:28:30;42.45;;;6.65;;
20480;SDS011;10399;50.754;3.366;2022-12-24T06:30:58;61.97;;;8.00;;
20480;SDS011;10399;50.754;3.366;2022-12-24T06:33:29;49.35;;;7.72;;
20480;SDS011;10399;50.754;3.366;2022-12-24T06:35:57;47.00;;;6.22;;
20480;SDS011;10399;50.754;3.366;2022-12-24T06:38:25;49.85;;;6.70;;
20480;SDS011;10399;50.754;3.366;2022-12-24T06:40:52;42.50;;;6.65;;
20480;SDS011;10399;50.754;3.366;2022-12-24T06:43:21;48.28;;;5.95;;
20480;SDS011;10399;50.754;3.366;2022-12-24T06:45:48;41.47;;;5.95;;
20480;SDS011;10399;50.754;3.366;2022-12-24T06:48:15;40.33;;;6.70;;
20480;SDS011;10399;50.754;3.366;2022-12-24T06:50:42;48.10;;;6.85;;
20480;SDS011;10399;50.754;3.366;2022-12-24T06:53:10;42.17;;;6.10;;
20480;SDS011;10399;50.754;3.366;2022-12-24T06:55:37;42.78;;;6.40;;
20480;SDS011;10399;50.754;3.366;2022-12-24T06:58:04;35.75;;;5.00;;
20480;SDS011;10399;50.754;3.366;2022-12-24T07:00:31;48.15;;;7.15;;
20480;SDS011;10399;50.754;3.366;2022-12-24T07:02:58;41.53;;;5.45;;
20480;SDS011;10399;50.754;3.366;2022-12-24T07:05:26;37.42;;;6.10;;
20480;SDS011;10399;50.754;3.366;2022-12-24T07:07:53;38.67;;;5.97;;
20480;SDS011;10399;50.754;3.366;2022-12-24T07:10:21;42.47;;;6.95;;
20480;SDS011;10399;50.754;3.366;2022-12-24T07:12:48;40.83;;;6.43;;
20480;SDS011;10399;50.754;3.366;2022-12-24T07:15:15;44.25;;;6.55;;
20480;SDS011;10399;50.754;3.366;2022-12-24T07:17:43;47.75;;;6.72;;
20480;SDS011;10399;50.754;3.366;2022-12-24T07:20:14;45.20;;;6.20;;
20480;SDS011;10399;50.754;3.366;2022-12-24T07:22:41;53.88;;;7.50;;
20480;SDS011;10399;50.754;3.366;2022-12-24T07:25:09;44.72;;;6.68;;
20480;SDS011;10399;50.754;3.366;2022-12-24T07:27:36;42.35;;;6.75;;
20480;SDS011;10399;50.754;3.366;2022-12-24T07:30:04;46.58;;;6.30;;
20480;SDS011;10399;50.754;3.366;2022-12-24T07:32:32;39.60;;;6.93;;
20480;SDS011;10399;50.754;3.366;2022-12-24T07:34:59;43.47;;;7.65;;
20480;SDS011;10399;50.754;3.366;2022-12-24T07:37:26;44.38;;;6.85;;
20480;SDS011;10399;50.754;3.366;2022-12-24T07:39:53;47.25;;;7.55;;
20480;SDS011;10399;50.754;3.366;2022-12-24T07:42:20;56.20;;;7.68;;
20480;SDS011;10399;50.754;3.366;2022-12-24T07:44:47;52.25;;;7.82;;
20480;SDS011;10399;50.754;3.366;2022-12-24T07:47:14;42.15;;;6.53;;
20480;SDS011;10399;50.754;3.366;2022-12-24T07:49:41;34.85;;;6.60;;
20480;SDS011;10399;50.754;3.366;2022-12-24T07:52:08;44.78;;;6.55;;
20480;SDS011;10399;50.754;3.366;2022-12-24T07:54:35;41.65;;;6.53;;
20480;SDS011;10399;50.754;3.366;2022-12-24T07:57:02;41.40;;;7.75;;
20480;SDS011;10399;50.754;3.366;2022-12-24T07:59:29;42.92;;;8.23;;
20480;SDS011;10399;50.754;3.366;2022-12-24T08:01:56;36.40;;;7.38;;
20480;SDS011;10399;50.754;3.366;2022-12-24T08:04:24;48.45;;;7.68;;
20480;SDS011;10399;50.754;3.366;2022-12-24T08:06:51;36.97;;;6.80;;
20480;SDS011;10399;50.754;3.366;2022-12-24T08:09:18;36.15;;;7.68;;
20480;SDS011;10399;50.754;3.366;2022-12-24T08:11:45;38.40;;;6.78;;
20480;SDS011;10399;50.754;3.366;2022-12-24T08:14:18;38.42;;;7.35;;
20480;SDS011;10399;50.754;3.366;2022-12-24T08:16:45;48.55;;;8.82;;
20480;SDS011;10399;50.754;3.366;2022-12-24T08:19:12;46.88;;;7.50;;
20480;SDS011;10399;50.754;3.366;2022-12-24T08:21:40;40.40;;;9.52;;
20480;SDS011;10399;50.754;3.366;2022-12-24T08:24:07;48.97;;;10.25;;
20480;SDS011;10399;50.754;3.366;2022-12-24T08:26:34;44.50;;;8.65;;
20480;SDS011;10399;50.754;3.366;2022-12-24T08:29:02;41.85;;;6.85;;
20480;SDS011;10399;50.754;3.366;2022-12-24T08:31:30;30.83;;;7.28;;
20480;SDS011;10399;50.754;3.366;2022-12-24T08:34:02;33.97;;;7.50;;
20480;SDS011;10399;50.754;3.366;2022-12-24T08:36:30;45.55;;;7.88;;
20480;SDS011;10399;50.754;3.366;2022-12-24T08:38:57;46.78;;;9.05;;
20480;SDS011;10399;50.754;3.366;2022-12-24T08:41:29;45.63;;;8.63;;
20480;SDS011;10399;50.754;3.366;2022-12-24T08:43:57;52.83;;;7.68;;
20480;SDS011;10399;50.754;3.366;2022-12-24T08:46:24;38.38;;;7.00;;
20480;SDS011;10399;50.754;3.366;2022-12-24T08:48:52;51.28;;;7.15;;
20480;SDS011;10399;50.754;3.366;2022-12-24T08:51:19;37.53;;;6.63;;
20480;SDS011;10399;50.754;3.366;2022-12-24T08:53:46;41.00;;;7.93;;
20480;SDS011;10399;50.754;3.366;2022-12-24T08:56:13;45.83;;;8.68;;
20480;SDS011;10399;50.754;3.366;2022-12-24T08:58:41;44.95;;;7.45;;
20480;SDS011;10399;50.754;3.366;2022-12-24T09:01:09;44.22;;;7.80;;
20480;SDS011;10399;50.754;3.366;2022-12-24T09:03:39;46.95;;;7.15;;
20480;SDS011;10399;50.754;3.366;2022-12-24T09:06:07;55.92;;;8.25;;
20480;SDS011;10399;50.754;3.366;2022-12-24T09:08:34;45.10;;;8.10;;
20480;SDS011;10399;50.754;3.366;2022-12-24T09:11:05;54.50;;;6.88;;
20480;SDS011;10399;50.754;3.366;2022-12-24T09:13:38;50.05;;;6.70;;
20480;SDS011;10399;50.754;3.366;2022-12-24T09:16:05;38.13;;;6.30;;
20480;SDS011;10399;50.754;3.366;2022-12-24T09:18:33;52.67;;;7.22;;
20480;SDS011;10399;50.754;3.366;2022-12-24T09:21:04;35.47;;;6.35;;
20480;SDS011;10399;50.754;3.366;2022-12-24T09:23:34;37.95;;;7.53;;
20480;SDS011;10399;50.754;3.366;2022-12-24T09:26:14;35.55;;;6.03;;
20480;SDS011;10399;50.754;3.366;2022-12-24T09:28:45;32.38;;;6.40;;
20480;SDS011;10399;50.754;3.366;2022-12-24T09:31:13;34.10;;;6.03;;
20480;SDS011;10399;50.754;3.366;2022-12-24T09:33:42;33.97;;;6.25;;
20480;SDS011;10399;50.754;3.366;2022-12-24T09:36:10;44.85;;;7.70;;
20480;SDS011;10399;50.754;3.366;2022-12-24T09:38:37;41.78;;;7.03;;
20480;SDS011;10399;50.754;3.366;2022-12-24T09:43:50;37.75;;;7.10;;
20480;SDS011;10399;50.754;3.366;2022-12-24T09:46:32;40.15;;;6.32;;
20480;SDS011;10399;50.754;3.366;2022-12-24T09:49:04;47.13;;;6.82;;
20480;SDS011;10399;50.754;3.366;2022-12-24T09:51:38;43.53;;;7.15;;
20480;SDS011;10399;50.754;3.366;2022-12-24T09:54:12;44.60;;;6.80;;
20480;SDS011;10399;50.754;3.366;2022-12-24T09:56:48;52.58;;;7.65;;
20480;SDS011;10399;50.754;3.366;2022-12-24T09:59:17;46.20;;;6.68;;
20480;SDS011;10399;50.754;3.366;2022-12-24T10:01:50;42.80;;;6.30;;
20480;SDS011;10399;50.754;3.366;2022-12-24T10:04:20;39.72;;;7.20;;
20480;SDS011;10399;50.754;3.366;2022-12-24T10:07:05;43.38;;;7.10;;
20480;SDS011;10399;50.754;3.366;2022-12-24T10:12:53;46.97;;;7.15;;
20480;SDS011;10399;50.754;3.366;2022-12-24T10:15:45;47.88;;;7.90;;
20480;SDS011;10399;50.754;3.366;2022-12-24T10:21:15;37.80;;;7.07;;
20480;SDS011;10399;50.754;3.366;2022-12-24T10:23:51;38.97;;;6.53;;
20480;SDS011;10399;50.754;3.366;2022-12-24T10:26:25;35.75;;;7.00;;
20480;SDS011;10399;50.754;3.366;2022-12-24T10:28:57;37.17;;;6.70;;
20480;SDS011;10399;50.754;3.366;2022-12-24T10:34:25;35.92;;;6.38;;
20480;SDS011;10399;50.754;3.366;2022-12-24T10:36:56;44.15;;;6.75;;
20480;SDS011;10399;50.754;3.366;2022-12-24T10:39:25;43.17;;;6.97;;
20480;SDS011;10399;50.754;3.366;2022-12-24T10:41:53;47.70;;;7.18;;
20480;SDS011;10399;50.754;3.366;2022-12-24T10:44:25;39.03;;;7.45;;
20480;SDS011;10399;50.754;3.366;2022-12-24T10:46:54;47.28;;;6.82;;
20480;SDS011;10399;50.754;3.366;2022-12-24T10:49:32;31.05;;;6.28;;
20480;SDS011;10399;50.754;3.366;2022-12-24T10:52:24;44.42;;;7.55;;
20480;SDS011;10399;50.754;3.366;2022-12-24T10:57:34;37.20;;;7.63;;
20480;SDS011;10399;50.754;3.366;2022-12-24T11:00:01;42.38;;;7.65;;
20480;SDS011;10399;50.754;3.366;2022-12-24T11:02:36;46.38;;;7.97;;
20480;SDS011;10399;50.754;3.366;2022-12-24T11:05:05;46.88;;;8.32;;
20480;SDS011;10399;50.754;3.366;2022-12-24T11:10:58;43.03;;;7.82;;
20480;SDS011;10399;50.754;3.366;2022-12-24T11:13:31;48.65;;;7.60;;
20480;SDS011;10399;50.754;3.366;2022-12-24T11:19:14;41.85;;;6.25;;
20480;SDS011;10399;50.754;3.366;2022-12-24T11:21:44;39.03;;;7.20;;
20480;SDS011;10399;50.754;3.366;2022-12-24T11:26:42;38.67;;;7.53;;
20480;SDS011;10399;50.754;3.366;2022-12-24T11:29:20;34.92;;;6.55;;
20480;SDS011;10399;50.754;3.366;2022-12-24T11:31:49;37.38;;;6.38;;
20480;SDS011;10399;50.754;3.366;2022-12-24T11:34:25;46.85;;;8.13;;
20480;SDS011;10399;50.754;3.366;2022-12-24T11:36:54;35.97;;;7.10;;
20480;SDS011;10399;50.754;3.366;2022-12-24T11:39:45;30.75;;;5.70;;
20480;SDS011;10399;50.754;3.366;2022-12-24T11:42:25;31.13;;;6.93;;
20480;SDS011;10399;50.754;3.366;2022-12-24T11:44:56;37.63;;;6.25;;
20480;SDS011;10399;50.754;3.366;2022-12-24T11:47:38;39.60;;;7.25;;
20480;SDS011;10399;50.754;3.366;2022-12-24T11:50:27;28.85;;;6.28;;
20480;SDS011;10399;50.754;3.366;2022-12-24T11:53:14;35.88;;;6.47;;
20480;SDS011;10399;50.754;3.366;2022-12-24T11:55:47;45.67;;;7.03;;
20480;SDS011;10399;50.754;3.366;2022-12-24T11:59:18;40.38;;;7.28;;
20480;SDS011;10399;50.754;3.366;2022-12-24T12:04:17;38.95;;;6.85;;
20480;SDS011;10399;50.754;3.366;2022-12-24T12:09:33;42.55;;;7.05;;
20480;SDS011;10399;50.754;3.366;2022-12-24T12:12:07;37.28;;;6.40;;
20480;SDS011;10399;50.754;3.366;2022-12-24T12:14:54;35.97;;;7.95;;
20480;SDS011;10399;50.754;3.366;2022-12-24T12:17:30;41.92;;;7.18;;
20480;SDS011;10399;50.754;3.366;2022-12-24T12:25:22;38.03;;;6.60;;
20480;SDS011;10399;50.754;3.366;2022-12-24T12:27:54;25.85;;;6.28;;
20480;SDS011;10399;50.754;3.366;2022-12-24T12:30:23;41.30;;;6.65;;
20480;SDS011;10399;50.754;3.366;2022-12-24T12:33:02;39.00;;;7.28;;
20480;SDS011;10399;50.754;3.366;2022-12-24T12:35:49;35.50;;;6.93;;
20480;SDS011;10399;50.754;3.366;2022-12-24T12:38:24;38.72;;;6.95;;
20480;SDS011;10399;50.754;3.366;2022-12-24T12:57:33;36.08;;;6.25;;
20480;SDS011;10399;50.754;3.366;2022-12-24T13:00:10;37.65;;;7.60;;
20480;SDS011;10399;50.754;3.366;2022-12-24T13:02:53;32.45;;;6.68;;
20480;SDS011;10399;50.754;3.366;2022-12-24T13:14:27;32.17;;;6.88;;
20480;SDS011;10399;50.754;3.366;2022-12-24T13:22:16;30.13;;;6.50;;
20480;SDS011;10399;50.754;3.366;2022-12-24T13:24:53;26.00;;;5.30;;
20480;SDS011;10399;50.754;3.366;2022-12-24T13:33:08;39.35;;;6.85;;
20480;SDS011;10399;50.754;3.366;2022-12-24T13:35:30;37.88;;;7.07;;
20480;SDS011;10399;50.754;3.366;2022-12-24T13:38:38;40.50;;;7.03;;
20480;SDS011;10399;50.754;3.366;2022-12-24T13:46:56;30.05;;;6.43;;
20480;SDS011;10399;50.754;3.366;2022-12-24T14:05:32;28.95;;;5.40;;
20480;SDS011;10399;50.754;3.366;2022-12-24T14:08:13;39.70;;;5.50;;
20480;SDS011;10399;50.754;3.366;2022-12-24T14:10:58;34.58;;;6.00;;
20480;SDS011;10399;50.754;3.366;2022-12-24T14:16:04;36.65;;;6.38;;
20480;SDS011;10399;50.754;3.366;2022-12-24T14:18:39;44.67;;;5.60;;
20480;SDS011;10399;50.754;3.366;2022-12-24T14:24:04;32.67;;;5.30;;
20480;SDS011;10399;50.754;3.366;2022-12-24T14:26:46;25.25;;;5.18;;
20480;SDS011;10399;50.754;3.366;2022-12-24T14:29:25;41.88;;;7.18;;
20480;SDS011;10399;50.754;3.366;2022-12-24T14:31:57;30.15;;;5.72;;
20480;SDS011;10399;50.754;3.366;2022-12-24T14:34:29;30.67;;;5.50;;
20480;SDS011;10399;50.754;3.366;2022-12-24T14:36:57;43.13;;;6.13;;
20480;SDS011;10399;50.754;3.366;2022-12-24T14:39:31;35.45;;;6.00;;
20480;SDS011;10399;50.754;3.366;2022-12-24T14:45:05;30.83;;;6.45;;
20480;SDS011;10399;50.754;3.366;2022-12-24T14:55:55;29.05;;;7.20;;
20480;SDS011;10399;50.754;3.366;2022-12-24T14:58:23;30.90;;;7.38;;
20480;SDS011;10399;50.754;3.366;2022-12-24T15:01:02;30.48;;;7.22;;
20480;SDS011;10399;50.754;3.366;2022-12-24T15:04:03;33.90;;;7.28;;
20480;SDS011;10399;50.754;3.366;2022-12-24T15:06:38;40.58;;;7.07;;
20480;SDS011;10399;50.754;3.366;2022-12-24T15:09:10;33.67;;;7.43;;
20480;SDS011;10399;50.754;3.366;2022-12-24T15:11:43;35.42;;;6.88;;
20480;SDS011;10399;50.754;3.366;2022-12-24T15:14:12;37.38;;;7.88;;
20480;SDS011;10399;50.754;3.366;2022-12-24T15:16:40;36.67;;;6.75;;
20480;SDS011;10399;50.754;3.366;2022-12-24T15:19:23;35.20;;;7.20;;
20480;SDS011;10399;50.754;3.366;2022-12-24T15:22:01;38.67;;;7.53;;
20480;SDS011;10399;50.754;3.366;2022-12-24T15:24:33;31.38;;;6.57;;
20480;SDS011;10399;50.754;3.366;2022-12-24T15:27:16;29.65;;;6.80;;
20480;SDS011;10399;50.754;3.366;2022-12-24T15:29:49;32.50;;;7.63;;
20480;SDS011;10399;50.754;3.366;2022-12-24T15:32:19;36.10;;;7.50;;
20480;SDS011;10399;50.754;3.366;2022-12-24T15:34:48;34.78;;;8.02;;
20480;SDS011;10399;50.754;3.366;2022-12-24T15:37:27;40.30;;;8.40;;
20480;SDS011;10399;50.754;3.366;2022-12-24T15:42:35;26.23;;;7.07;;
20480;SDS011;10399;50.754;3.366;2022-12-24T15:45:11;33.00;;;6.90;;
20480;SDS011;10399;50.754;3.366;2022-12-24T15:47:52;31.63;;;6.40;;
20480;SDS011;10399;50.754;3.366;2022-12-24T15:53:07;49.22;;;7.65;;
20480;SDS011;10399;50.754;3.366;2022-12-24T15:56:00;27.00;;;6.13;;
20480;SDS011;10399;50.754;3.366;2022-12-24T15:58:30;38.55;;;7.63;;
20480;SDS011;10399;50.754;3.366;2022-12-24T16:01:01;33.05;;;6.78;;
20480;SDS011;10399;50.754;3.366;2022-12-24T16:03:28;37.30;;;7.72;;
20480;SDS011;10399;50.754;3.366;2022-12-24T16:06:03;31.25;;;7.35;;
20480;SDS011;10399;50.754;3.366;2022-12-24T16:08:34;41.85;;;7.18;;
20480;SDS011;10399;50.754;3.366;2022-12-24T16:13:38;35.97;;;7.65;;
20480;SDS011;10399;50.754;3.366;2022-12-24T16:16:18;36.33;;;7.07;;
20480;SDS011;10399;50.754;3.366;2022-12-24T16:18:51;30.33;;;6.68;;
20480;SDS011;10399;50.754;3.366;2022-12-24T16:23:51;34.38;;;7.57;;
20480;SDS011;10399;50.754;3.366;2022-12-24T16:26:21;35.15;;;6.97;;
20480;SDS011;10399;50.754;3.366;2022-12-24T16:28:48;33.55;;;7.22;;
20480;SDS011;10399;50.754;3.366;2022-12-24T16:31:27;39.33;;;8.23;;
20480;SDS011;10399;50.754;3.366;2022-12-24T16:33:59;37.45;;;7.30;;
20480;SDS011;10399;50.754;3.366;2022-12-24T16:36:28;35.63;;;8.23;;
20480;SDS011;10399;50.754;3.366;2022-12-24T16:38:56;32.03;;;8.05;;
20480;SDS011;10399;50.754;3.366;2022-12-24T16:41:42;39.85;;;8.07;;
20480;SDS011;10399;50.754;3.366;2022-12-24T16:44:28;33.30;;;7.95;;
20480;SDS011;10399;50.754;3.366;2022-12-24T16:46:55;41.47;;;7.40;;
20480;SDS011;10399;50.754;3.366;2022-12-24T16:49:23;42.83;;;7.90;;
20480;SDS011;10399;50.754;3.366;2022-12-24T16:51:51;34.88;;;7.45;;
20480;SDS011;10399;50.754;3.366;2022-12-24T16:54:18;35.15;;;6.97;;
20480;SDS011;10399;50.754;3.366;2022-12-24T16:56:45;36.47;;;7.63;;
20480;SDS011;10399;50.754;3.366;2022-12-24T16:59:19;39.25;;;7.00;;
20480;SDS011;10399;50.754;3.366;2022-12-24T17:01:49;45.65;;;8.27;;
20480;SDS011;10399;50.754;3.366;2022-12-24T17:04:16;39.78;;;7.20;;
20480;SDS011;10399;50.754;3.366;2022-12-24T17:06:44;26.67;;;6.78;;
20480;SDS011;10399;50.754;3.366;2022-12-24T17:09:15;32.17;;;7.05;;
20480;SDS011;10399;50.754;3.366;2022-12-24T17:11:43;39.25;;;7.75;;
20480;SDS011;10399;50.754;3.366;2022-12-24T17:14:11;36.00;;;7.38;;
20480;SDS011;10399;50.754;3.366;2022-12-24T17:16:45;35.67;;;6.97;;
20480;SDS011;10399;50.754;3.366;2022-12-24T17:19:12;37.25;;;7.07;;
20480;SDS011;10399;50.754;3.366;2022-12-24T17:21:39;32.47;;;6.82;;
20480;SDS011;10399;50.754;3.366;2022-12-24T17:24:07;38.58;;;6.65;;
20480;SDS011;10399;50.754;3.366;2022-12-24T17:26:35;37.50;;;6.97;;